sensor_id;sensor_type;location;lat;lon;timestamp;pressure;altitude;pressure_sealevel;temperature;humidity
80624;BME280;70269;44.768;9.600;2023-06-14T00:00:39;96989.09;;;15.05;92.15
80624;BME280;70269;44.768;9.600;2023-06-14T00:03:08;96989.81;;;15.00;91.83
80624;BME280;70269;44.768;9.600;2023-06-14T00:05:36;96983.91;;;15.03;91.74
80624;BME280;70269;44.768;9.600;2023-06-14T00:08:06;96977.94;;;15.06;91.70
80624;BME280;70269;44.768;9.600;2023-06-14T00:10:35;96984.19;;;15.07;91.83
80624;BME280;70269;44.768;9.600;2023-06-14T00:13:02;96988.31;;;15.09;92.05
80624;BME280;70269;44.768;9.600;2023-06-14T00:15:28;96991.09;;;15.14;91.67
80624;BME280;70269;44.768;9.600;2023-06-14T00:17:54;96985.16;;;15.17;91.78
80624;BME280;70269;44.768;9.600;2023-06-14T00:20:20;96987.63;;;15.19;91.87
80624;BME280;70269;44.768;9.600;2023-06-14T00:22:46;96977.13;;;15.27;91.30
80624;BME280;70269;44.768;9.600;2023-06-14T00:25:11;96977.13;;;15.27;91.10
80624;BME280;70269;44.768;9.600;2023-06-14T00:27:37;96973.81;;;15.25;90.75
80624;BME280;70269;44.768;9.600;2023-06-14T00:30:03;96969.16;;;15.21;91.29
80624;BME280;70269;44.768;9.600;2023-06-14T00:32:29;96971.28;;;15.19;91.87
80624;BME280;70269;44.768;9.600;2023-06-14T00:34:55;96962.88;;;15.20;91.21
80624;BME280;70269;44.768;9.600;2023-06-14T00:37:21;96965.03;;;15.18;91.32
80624;BME280;70269;44.768;9.600;2023-06-14T00:39:46;96965.03;;;15.18;91.45
80624;BME280;70269;44.768;9.600;2023-06-14T00:42:23;96954.97;;;15.19;90.71
80624;BME280;70269;44.768;9.600;2023-06-14T00:44:49;96954.66;;;15.15;90.78
80624;BME280;70269;44.768;9.600;2023-06-14T00:47:15;96944.38;;;15.17;91.62
80624;BME280;70269;44.768;9.600;2023-06-14T00:49:41;96943.53;;;15.17;91.34
80624;BME280;70269;44.768;9.600;2023-06-14T00:52:07;96947.91;;;15.18;91.81
80624;BME280;70269;44.768;9.600;2023-06-14T00:54:32;96946.56;;;15.20;91.64
80624;BME280;70269;44.768;9.600;2023-06-14T00:56:58;96938.97;;;15.22;91.15
80624;BME280;70269;44.768;9.600;2023-06-14T00:59:24;96944.41;;;15.22;91.40
80624;BME280;70269;44.768;9.600;2023-06-14T01:01:50;96941.94;;;15.21;91.56
80624;BME280;70269;44.768;9.600;2023-06-14T01:04:16;96939.75;;;15.18;92.27
80624;BME280;70269;44.768;9.600;2023-06-14T01:06:59;96935.91;;;15.19;91.23
80624;BME280;70269;44.768;9.600;2023-06-14T01:12:52;96933.16;;;15.14;92.42
80624;BME280;70269;44.768;9.600;2023-06-14T01:15:21;96934.56;;;15.16;92.51
80624;BME280;70269;44.768;9.600;2023-06-14T01:17:49;96938.03;;;15.12;91.17
80624;BME280;70269;44.768;9.600;2023-06-14T01:20:18;96929.66;;;15.18;91.72
80624;BME280;70269;44.768;9.600;2023-06-14T01:22:55;96939.75;;;15.18;92.28
80624;BME280;70269;44.768;9.600;2023-06-14T01:25:21;96925.31;;;15.17;92.36
80624;BME280;70269;44.768;9.600;2023-06-14T01:27:53;96935.63;;;15.15;92.85
80624;BME280;70269;44.768;9.600;2023-06-14T01:30:20;96931.84;;;15.16;91.97
80624;BME280;70269;44.768;9.600;2023-06-14T01:32:47;96931.50;;;15.13;92.06
80624;BME280;70269;44.768;9.600;2023-06-14T01:35:13;96927.59;;;15.04;93.66
80624;BME280;70269;44.768;9.600;2023-06-14T01:37:40;96918.66;;;15.08;93.19
80624;BME280;70269;44.768;9.600;2023-06-14T01:40:07;96923.63;;;15.11;93.05
80624;BME280;70269;44.768;9.600;2023-06-14T01:42:36;96931.78;;;15.11;93.21
80624;BME280;70269;44.768;9.600;2023-06-14T01:45:04;96921.16;;;15.10;92.85
80624;BME280;70269;44.768;9.600;2023-06-14T01:47:31;96928.53;;;15.14;92.52
80624;BME280;70269;44.768;9.600;2023-06-14T01:49:57;96921.19;;;15.15;92.66
80624;BME280;70269;44.768;9.600;2023-06-14T01:52:22;96927.16;;;15.12;91.89
80624;BME280;70269;44.768;9.600;2023-06-14T01:54:50;96920.38;;;15.14;91.39
80624;BME280;70269;44.768;9.600;2023-06-14T01:57:16;96920.06;;;15.11;91.13
80624;BME280;70269;44.768;9.600;2023-06-14T01:59:41;96915.19;;;15.13;90.94
80624;BME280;70269;44.768;9.600;2023-06-14T02:02:08;96910.03;;;15.11;91.07
80624;BME280;70269;44.768;9.600;2023-06-14T02:04:34;96912.22;;;15.14;91.44
80624;BME280;70269;44.768;9.600;2023-06-14T02:06:59;96907.84;;;15.13;91.50
80624;BME280;70269;44.768;9.600;2023-06-14T02:09:25;96914.31;;;15.07;92.29
80624;BME280;70269;44.768;9.600;2023-06-14T02:11:53;96918.47;;;15.15;91.94
80624;BME280;70269;44.768;9.600;2023-06-14T02:14:19;96910.31;;;15.15;92.44
80624;BME280;70269;44.768;9.600;2023-06-14T02:16:45;96916.00;;;15.13;91.42
80624;BME280;70269;44.768;9.600;2023-06-14T02:19:17;96905.66;;;15.10;91.85
80624;BME280;70269;44.768;9.600;2023-06-14T02:21:44;96911.59;;;15.07;92.41
80624;BME280;70269;44.768;9.600;2023-06-14T02:24:12;96908.06;;;14.85;93.21
80624;BME280;70269;44.768;9.600;2023-06-14T02:26:38;96910.53;;;14.86;93.37
80624;BME280;70269;44.768;9.600;2023-06-14T02:29:07;96905.47;;;14.95;93.15
80624;BME280;70269;44.768;9.600;2023-06-14T02:31:35;96912.88;;;15.00;92.93
80624;BME280;70269;44.768;9.600;2023-06-14T02:34:01;96904.78;;;15.05;92.70
80624;BME280;70269;44.768;9.600;2023-06-14T02:36:27;96912.41;;;15.08;91.93
80624;BME280;70269;44.768;9.600;2023-06-14T02:38:55;96903.19;;;15.09;91.88
80624;BME280;70269;44.768;9.600;2023-06-14T02:41:24;96908.38;;;15.10;92.30
80624;BME280;70269;44.768;9.600;2023-06-14T02:43:53;96905.31;;;15.07;92.15
80624;BME280;70269;44.768;9.600;2023-06-14T02:46:18;96902.88;;;15.05;91.90
80624;BME280;70269;44.768;9.600;2023-06-14T02:48:44;96907.78;;;15.08;92.06
80624;BME280;70269;44.768;9.600;2023-06-14T02:51:10;96900.69;;;15.07;91.73
80624;BME280;70269;44.768;9.600;2023-06-14T02:53:36;96908.88;;;15.07;92.18
80624;BME280;70269;44.768;9.600;2023-06-14T02:56:02;96901.78;;;15.06;92.23
80624;BME280;70269;44.768;9.600;2023-06-14T02:58:30;96910.75;;;15.07;92.06
80624;BME280;70269;44.768;9.600;2023-06-14T03:00:55;96909.94;;;15.06;91.96
80624;BME280;70269;44.768;9.600;2023-06-14T03:03:22;96908.63;;;15.09;91.62
80624;BME280;70269;44.768;9.600;2023-06-14T03:05:52;96908.88;;;15.07;91.73
80624;BME280;70269;44.768;9.600;2023-06-14T03:08:23;96904.25;;;15.08;91.45
80624;BME280;70269;44.768;9.600;2023-06-14T03:10:53;96907.22;;;15.06;92.00
80624;BME280;70269;44.768;9.600;2023-06-14T03:13:22;96908.31;;;15.05;92.28
80624;BME280;70269;44.768;9.600;2023-06-14T03:15:49;96905.03;;;15.03;91.60
80624;BME280;70269;44.768;9.600;2023-06-14T03:18:19;96900.97;;;15.06;91.86
80624;BME280;70269;44.768;9.600;2023-06-14T03:20:45;96916.19;;;15.07;92.00
80624;BME280;70269;44.768;9.600;2023-06-14T03:23:12;96910.50;;;15.08;91.76
80624;BME280;70269;44.768;9.600;2023-06-14T03:25:38;96915.31;;;15.01;91.95
80624;BME280;70269;44.768;9.600;2023-06-14T03:28:07;96904.72;;;15.00;92.04
80624;BME280;70269;44.768;9.600;2023-06-14T03:30:34;96903.31;;;14.97;92.77
80624;BME280;70269;44.768;9.600;2023-06-14T03:33:00;96904.13;;;14.97;91.95
80624;BME280;70269;44.768;9.600;2023-06-14T03:35:31;96903.69;;;14.84;92.28
80624;BME280;70269;44.768;9.600;2023-06-14T03:37:56;96907.63;;;14.71;92.67
80624;BME280;70269;44.768;9.600;2023-06-14T03:40:23;96908.00;;;14.80;92.98
80624;BME280;70269;44.768;9.600;2023-06-14T03:42:57;96910.72;;;14.80;92.67
80624;BME280;70269;44.768;9.600;2023-06-14T03:45:23;96912.38;;;14.81;92.60
80624;BME280;70269;44.768;9.600;2023-06-14T03:47:48;96910.19;;;14.83;93.14
80624;BME280;70269;44.768;9.600;2023-06-14T03:50:14;96907.47;;;14.83;93.48
80624;BME280;70269;44.768;9.600;2023-06-14T03:52:40;96913.25;;;14.86;92.91
80624;BME280;70269;44.768;9.600;2023-06-14T03:55:09;96914.38;;;14.90;92.62
80624;BME280;70269;44.768;9.600;2023-06-14T03:57:36;96906.72;;;14.87;91.87
80624;BME280;70269;44.768;9.600;2023-06-14T04:00:04;96909.44;;;14.87;91.90
80624;BME280;70269;44.768;9.600;2023-06-14T04:02:39;96907.06;;;14.91;91.74
80624;BME280;70269;44.768;9.600;2023-06-14T04:05:06;96904.34;;;14.91;92.21
80624;BME280;70269;44.768;9.600;2023-06-14T04:07:35;96902.44;;;14.91;92.40
80624;BME280;70269;44.768;9.600;2023-06-14T04:10:13;96913.38;;;14.96;92.05
80624;BME280;70269;44.768;9.600;2023-06-14T04:12:39;96913.66;;;15.00;92.18
80624;BME280;70269;44.768;9.600;2023-06-14T04:15:06;96918.09;;;15.06;92.02
80624;BME280;70269;44.768;9.600;2023-06-14T04:17:32;96910.25;;;14.88;92.24
80624;BME280;70269;44.768;9.600;2023-06-14T04:19:59;96914.09;;;14.87;91.98
80624;BME280;70269;44.768;9.600;2023-06-14T04:22:26;96915.31;;;15.01;91.86
80624;BME280;70269;44.768;9.600;2023-06-14T04:24:55;96923.03;;;15.09;91.65
80624;BME280;70269;44.768;9.600;2023-06-14T04:27:28;96925.75;;;15.09;90.98
80624;BME280;70269;44.768;9.600;2023-06-14T04:29:58;96925.31;;;15.17;90.67
80624;BME280;70269;44.768;9.600;2023-06-14T04:32:32;96925.88;;;15.19;90.90
80624;BME280;70269;44.768;9.600;2023-06-14T04:35:00;96926.44;;;15.21;91.46
80624;BME280;70269;44.768;9.600;2023-06-14T04:37:29;96924.50;;;15.17;91.97
80624;BME280;70269;44.768;9.600;2023-06-14T04:39:56;96932.72;;;15.22;91.19
80624;BME280;70269;44.768;9.600;2023-06-14T04:42:22;96926.25;;;15.28;91.38
80624;BME280;70269;44.768;9.600;2023-06-14T04:44:51;96920.06;;;15.37;91.16
80624;BME280;70269;44.768;9.600;2023-06-14T04:47:21;96925.06;;;15.46;90.46
80624;BME280;70269;44.768;9.600;2023-06-14T04:49:47;96930.00;;;15.49;89.19
80624;BME280;70269;44.768;9.600;2023-06-14T04:52:13;96928.66;;;15.51;89.57
80624;BME280;70269;44.768;9.600;2023-06-14T04:54:41;96925.94;;;15.51;90.56
80624;BME280;70269;44.768;9.600;2023-06-14T04:57:09;96929.84;;;15.55;89.88
80624;BME280;70269;44.768;9.600;2023-06-14T04:59:40;96930.19;;;15.64;89.82
80624;BME280;70269;44.768;9.600;2023-06-14T05:02:07;96930.78;;;15.71;90.02
80624;BME280;70269;44.768;9.600;2023-06-14T05:04:34;96923.00;;;15.80;89.29
80624;BME280;70269;44.768;9.600;2023-06-14T05:07:00;96927.69;;;15.89;88.92
80624;BME280;70269;44.768;9.600;2023-06-14T05:09:27;96925.09;;;16.04;88.41
80624;BME280;70269;44.768;9.600;2023-06-14T05:11:53;96927.31;;;16.12;88.15
80624;BME280;70269;44.768;9.600;2023-06-14T05:14:19;96930.19;;;16.28;87.43
80624;BME280;70269;44.768;9.600;2023-06-14T05:16:46;96931.03;;;16.33;86.99
80624;BME280;70269;44.768;9.600;2023-06-14T05:19:14;96928.97;;;16.50;86.63
80624;BME280;70269;44.768;9.600;2023-06-14T05:21:39;96930.69;;;16.62;86.23
80624;BME280;70269;44.768;9.600;2023-06-14T05:24:05;96932.19;;;16.84;85.65
80624;BME280;70269;44.768;9.600;2023-06-14T05:26:31;96933.88;;;16.90;85.42
80624;BME280;70269;44.768;9.600;2023-06-14T05:28:57;96930.63;;;17.04;84.45
80624;BME280;70269;44.768;9.600;2023-06-14T05:31:24;96935.56;;;17.12;83.88
80624;BME280;70269;44.768;9.600;2023-06-14T05:33:51;96925.94;;;16.89;85.23
80624;BME280;70269;44.768;9.600;2023-06-14T05:36:17;96939.69;;;17.09;83.90
80624;BME280;70269;44.768;9.600;2023-06-14T05:38:42;96931.25;;;17.26;83.54
80624;BME280;70269;44.768;9.600;2023-06-14T05:41:08;96927.47;;;17.32;83.61
80624;BME280;70269;44.768;9.600;2023-06-14T05:43:34;96929.63;;;17.30;83.71
80624;BME280;70269;44.768;9.600;2023-06-14T05:45:59;96923.91;;;17.26;83.81
80624;BME280;70269;44.768;9.600;2023-06-14T05:48:25;96919.75;;;17.14;84.41
80624;BME280;70269;44.768;9.600;2023-06-14T05:50:50;96927.56;;;16.85;85.33
80624;BME280;70269;44.768;9.600;2023-06-14T05:53:16;96924.06;;;16.99;86.43
80624;BME280;70269;44.768;9.600;2023-06-14T05:55:42;96921.41;;;17.15;84.09
80624;BME280;70269;44.768;9.600;2023-06-14T05:58:07;96922.84;;;17.37;83.72
80624;BME280;70269;44.768;9.600;2023-06-14T06:00:33;96920.94;;;17.53;83.07
80624;BME280;70269;44.768;9.600;2023-06-14T06:02:59;96930.59;;;17.71;82.58
80624;BME280;70269;44.768;9.600;2023-06-14T06:05:24;96940.16;;;17.78;82.92
80624;BME280;70269;44.768;9.600;2023-06-14T06:07:51;96930.31;;;17.77;81.86
80624;BME280;70269;44.768;9.600;2023-06-14T06:10:17;96933.03;;;17.67;82.53
80624;BME280;70269;44.768;9.600;2023-06-14T06:12:43;96928.88;;;17.50;82.96
80624;BME280;70269;44.768;9.600;2023-06-14T06:15:09;96933.31;;;17.71;82.94
80624;BME280;70269;44.768;9.600;2023-06-14T06:17:38;96931.41;;;17.87;83.16
80624;BME280;70269;44.768;9.600;2023-06-14T06:20:05;96926.50;;;18.19;82.53
80624;BME280;70269;44.768;9.600;2023-06-14T06:22:34;96934.97;;;18.63;77.09
80624;BME280;70269;44.768;9.600;2023-06-14T06:25:00;96935.09;;;19.02;74.62
80624;BME280;70269;44.768;9.600;2023-06-14T06:27:26;96933.56;;;19.50;74.54
80624;BME280;70269;44.768;9.600;2023-06-14T06:29:51;96943.94;;;19.97;71.61
80624;BME280;70269;44.768;9.600;2023-06-14T06:32:17;96932.03;;;20.98;68.19
80624;BME280;70269;44.768;9.600;2023-06-14T06:34:43;96942.38;;;21.73;68.77
80624;BME280;70269;44.768;9.600;2023-06-14T06:37:08;96936.91;;;22.10;67.16
80624;BME280;70269;44.768;9.600;2023-06-14T06:39:34;96945.00;;;21.83;64.51
80624;BME280;70269;44.768;9.600;2023-06-14T06:42:00;96950.84;;;20.86;70.11
80624;BME280;70269;44.768;9.600;2023-06-14T06:44:32;96951.91;;;20.33;72.40
80624;BME280;70269;44.768;9.600;2023-06-14T06:46:58;96947.47;;;20.42;70.11
80624;BME280;70269;44.768;9.600;2023-06-14T06:49:24;96955.47;;;19.94;74.02
80624;BME280;70269;44.768;9.600;2023-06-14T06:52:03;96954.53;;;19.70;78.12
80624;BME280;70269;44.768;9.600;2023-06-14T06:54:29;96952.47;;;19.42;72.66
80624;BME280;70269;44.768;9.600;2023-06-14T06:56:54;96954.25;;;19.07;74.75
80624;BME280;70269;44.768;9.600;2023-06-14T06:59:20;96959.13;;;19.25;75.85
80624;BME280;70269;44.768;9.600;2023-06-14T07:01:46;96962.69;;;19.21;74.20
80624;BME280;70269;44.768;9.600;2023-06-14T07:04:12;96958.38;;;19.69;72.78
80624;BME280;70269;44.768;9.600;2023-06-14T07:06:38;96963.00;;;20.12;72.01
80624;BME280;70269;44.768;9.600;2023-06-14T07:09:03;96963.28;;;20.16;71.88
80624;BME280;70269;44.768;9.600;2023-06-14T07:11:32;96958.22;;;20.33;70.16
80624;BME280;70269;44.768;9.600;2023-06-14T07:13:57;96970.31;;;19.93;73.50
80624;BME280;70269;44.768;9.600;2023-06-14T07:16:23;96970.94;;;19.75;75.24
80624;BME280;70269;44.768;9.600;2023-06-14T07:18:48;96985.81;;;19.64;77.17
80624;BME280;70269;44.768;9.600;2023-06-14T07:21:14;96980.44;;;19.33;76.83
80624;BME280;70269;44.768;9.600;2023-06-14T07:23:40;96988.09;;;19.47;78.27
80624;BME280;70269;44.768;9.600;2023-06-14T07:26:06;96981.78;;;19.41;76.55
80624;BME280;70269;44.768;9.600;2023-06-14T07:28:31;96980.97;;;19.40;76.67
80624;BME280;70269;44.768;9.600;2023-06-14T07:30:57;96987.56;;;19.34;76.39
80624;BME280;70269;44.768;9.600;2023-06-14T07:33:22;96981.56;;;19.22;77.52
80624;BME280;70269;44.768;9.600;2023-06-14T07:35:48;96985.97;;;19.23;77.48
80624;BME280;70269;44.768;9.600;2023-06-14T07:38:14;96984.28;;;19.37;76.29
80624;BME280;70269;44.768;9.600;2023-06-14T07:40:40;96985.34;;;19.42;76.59
80624;BME280;70269;44.768;9.600;2023-06-14T07:43:05;96983.81;;;19.10;78.28
80624;BME280;70269;44.768;9.600;2023-06-14T07:45:31;96987.81;;;19.38;76.85
80624;BME280;70269;44.768;9.600;2023-06-14T07:47:57;96986.50;;;19.30;77.78
80624;BME280;70269;44.768;9.600;2023-06-14T07:50:23;96987.63;;;19.19;77.59
80624;BME280;70269;44.768;9.600;2023-06-14T07:52:48;96990.63;;;19.23;78.76
80624;BME280;70269;44.768;9.600;2023-06-14T07:55:14;96995.03;;;19.09;78.44
80624;BME280;70269;44.768;9.600;2023-06-14T07:57:40;96993.56;;;19.42;76.09
80624;BME280;70269;44.768;9.600;2023-06-14T08:00:06;96988.22;;;19.06;78.03
80624;BME280;70269;44.768;9.600;2023-06-14T08:02:37;96992.81;;;19.21;76.89
80624;BME280;70269;44.768;9.600;2023-06-14T08:05:03;96992.28;;;19.19;78.84
80624;BME280;70269;44.768;9.600;2023-06-14T08:07:28;96997.19;;;19.22;77.38
80624;BME280;70269;44.768;9.600;2023-06-14T08:09:54;96997.47;;;19.15;77.18
80624;BME280;70269;44.768;9.600;2023-06-14T08:12:19;96998.03;;;19.17;77.21
80624;BME280;70269;44.768;9.600;2023-06-14T08:14:45;97001.53;;;19.28;76.85
80624;BME280;70269;44.768;9.600;2023-06-14T08:17:10;97003.22;;;19.24;77.15
80624;BME280;70269;44.768;9.600;2023-06-14T08:19:36;97003.94;;;19.55;75.39
80624;BME280;70269;44.768;9.600;2023-06-14T08:22:02;97008.66;;;19.29;77.54
80624;BME280;70269;44.768;9.600;2023-06-14T08:24:29;97021.22;;;19.50;77.29
80624;BME280;70269;44.768;9.600;2023-06-14T08:26:54;97011.94;;;19.26;76.77
80624;BME280;70269;44.768;9.600;2023-06-14T08:29:20;97019.03;;;19.47;76.55
80624;BME280;70269;44.768;9.600;2023-06-14T08:31:46;97016.56;;;19.40;76.59
80624;BME280;70269;44.768;9.600;2023-06-14T08:34:12;97017.63;;;19.45;76.55
80624;BME280;70269;44.768;9.600;2023-06-14T08:36:37;97022.69;;;19.82;74.90
80624;BME280;70269;44.768;9.600;2023-06-14T08:39:03;97030.75;;;19.58;74.78
80624;BME280;70269;44.768;9.600;2023-06-14T08:41:29;97021.91;;;19.81;74.29
80624;BME280;70269;44.768;9.600;2023-06-14T08:43:56;97022.69;;;19.82;74.49
80624;BME280;70269;44.768;9.600;2023-06-14T08:46:25;97024.16;;;19.64;75.41
80624;BME280;70269;44.768;9.600;2023-06-14T08:48:55;97035.59;;;19.81;74.92
80624;BME280;70269;44.768;9.600;2023-06-14T08:51:22;97035.75;;;19.46;76.37
80624;BME280;70269;44.768;9.600;2023-06-14T08:53:53;97040.16;;;19.21;76.56
80624;BME280;70269;44.768;9.600;2023-06-14T08:56:27;97039.59;;;19.34;76.70
80624;BME280;70269;44.768;9.600;2023-06-14T08:58:57;97037.34;;;19.57;75.48
80624;BME280;70269;44.768;9.600;2023-06-14T09:01:26;97036.53;;;19.51;75.67
80624;BME280;70269;44.768;9.600;2023-06-14T09:03:52;97033.53;;;19.43;74.45
80624;BME280;70269;44.768;9.600;2023-06-14T09:06:20;97042.94;;;19.11;77.65
80624;BME280;70269;44.768;9.600;2023-06-14T09:08:48;97037.69;;;19.30;76.17
80624;BME280;70269;44.768;9.600;2023-06-14T09:11:17;97032.44;;;19.44;75.54
80624;BME280;70269;44.768;9.600;2023-06-14T09:13:45;97039.28;;;19.51;75.82
80624;BME280;70269;44.768;9.600;2023-06-14T09:16:11;97050.22;;;19.61;75.83
80624;BME280;70269;44.768;9.600;2023-06-14T09:18:37;97039.56;;;19.50;75.35
80624;BME280;70269;44.768;9.600;2023-06-14T09:21:08;97039.41;;;19.85;74.34
80624;BME280;70269;44.768;9.600;2023-06-14T09:23:55;97047.09;;;19.83;74.64
80624;BME280;70269;44.768;9.600;2023-06-14T09:26:33;97049.84;;;19.78;73.99
80624;BME280;70269;44.768;9.600;2023-06-14T09:29:06;97044.47;;;20.12;74.63
80624;BME280;70269;44.768;9.600;2023-06-14T09:31:32;97050.44;;;20.19;74.66
80624;BME280;70269;44.768;9.600;2023-06-14T09:34:02;97038.81;;;19.93;73.06
80624;BME280;70269;44.768;9.600;2023-06-14T09:36:27;97042.69;;;19.87;74.37
80624;BME280;70269;44.768;9.600;2023-06-14T09:41:20;97049.78;;;19.88;73.05
80624;BME280;70269;44.768;9.600;2023-06-14T09:43:46;97056.09;;;19.89;72.11
80624;BME280;70269;44.768;9.600;2023-06-14T09:46:13;97050.13;;;19.76;74.72
80624;BME280;70269;44.768;9.600;2023-06-14T09:48:38;97048.22;;;19.77;73.91
80624;BME280;70269;44.768;9.600;2023-06-14T09:51:10;97054.78;;;19.81;72.81
80624;BME280;70269;44.768;9.600;2023-06-14T09:53:41;97054.78;;;19.81;72.74
80624;BME280;70269;44.768;9.600;2023-06-14T09:56:09;97063.59;;;19.63;74.19
80624;BME280;70269;44.768;9.600;2023-06-14T09:58:37;97060.34;;;19.61;74.37
80624;BME280;70269;44.768;9.600;2023-06-14T10:01:06;97058.47;;;19.56;74.69
80624;BME280;70269;44.768;9.600;2023-06-14T10:03:34;97063.41;;;19.49;75.50
80624;BME280;70269;44.768;9.600;2023-06-14T10:06:02;97058.72;;;19.55;76.09
80624;BME280;70269;44.768;9.600;2023-06-14T10:08:32;97061.94;;;19.72;75.59
80624;BME280;70269;44.768;9.600;2023-06-14T10:11:02;97052.59;;;19.78;74.30
80624;BME280;70269;44.768;9.600;2023-06-14T10:13:31;97060.56;;;19.74;74.85
80624;BME280;70269;44.768;9.600;2023-06-14T10:16:17;97050.38;;;19.85;73.10
80624;BME280;70269;44.768;9.600;2023-06-14T10:18:53;97057.53;;;19.81;72.80
80624;BME280;70269;44.768;9.600;2023-06-14T10:21:46;97059.66;;;19.89;72.36
80624;BME280;70269;44.768;9.600;2023-06-14T10:24:17;97061.34;;;20.29;71.27
80624;BME280;70269;44.768;9.600;2023-06-14T10:26:58;97061.94;;;20.21;70.69
80624;BME280;70269;44.768;9.600;2023-06-14T10:29:25;97058.47;;;20.49;70.13
80624;BME280;70269;44.768;9.600;2023-06-14T10:31:56;97048.06;;;20.51;69.99
80624;BME280;70269;44.768;9.600;2023-06-14T10:39:29;97048.97;;;20.32;72.01
80624;BME280;70269;44.768;9.600;2023-06-14T10:41:56;97052.47;;;20.47;70.45
80624;BME280;70269;44.768;9.600;2023-06-14T10:46:54;97042.09;;;20.39;71.13
80624;BME280;70269;44.768;9.600;2023-06-14T10:49:20;97039.84;;;20.02;71.84
80624;BME280;70269;44.768;9.600;2023-06-14T10:52:02;97042.81;;;20.11;72.64
80624;BME280;70269;44.768;9.600;2023-06-14T10:54:28;97038.00;;;20.32;70.59
80624;BME280;70269;44.768;9.600;2023-06-14T10:56:53;97042.84;;;20.06;72.72
80624;BME280;70269;44.768;9.600;2023-06-14T10:59:20;97049.28;;;19.86;74.15
80624;BME280;70269;44.768;9.600;2023-06-14T11:04:49;97052.66;;;20.17;72.72
80624;BME280;70269;44.768;9.600;2023-06-14T11:12:28;97039.28;;;20.49;72.09
80624;BME280;70269;44.768;9.600;2023-06-14T11:14:57;97034.13;;;20.77;72.17
80624;BME280;70269;44.768;9.600;2023-06-14T11:17:22;97038.84;;;20.71;71.09
80624;BME280;70269;44.768;9.600;2023-06-14T11:19:48;97041.13;;;20.59;71.34
80624;BME280;70269;44.768;9.600;2023-06-14T11:22:13;97033.72;;;20.59;70.08
80624;BME280;70269;44.768;9.600;2023-06-14T11:24:40;97030.75;;;20.51;70.01
80624;BME280;70269;44.768;9.600;2023-06-14T11:27:06;97031.25;;;20.58;69.85
80624;BME280;70269;44.768;9.600;2023-06-14T11:29:31;97035.75;;;20.44;70.42
80624;BME280;70269;44.768;9.600;2023-06-14T11:31:57;97030.22;;;20.54;71.03
80624;BME280;70269;44.768;9.600;2023-06-14T11:34:22;97035.25;;;20.37;71.70
80624;BME280;70269;44.768;9.600;2023-06-14T11:36:48;97027.13;;;20.22;71.75
80624;BME280;70269;44.768;9.600;2023-06-14T11:39:13;97028.81;;;20.12;71.19
80624;BME280;70269;44.768;9.600;2023-06-14T11:41:42;97027.84;;;20.37;71.56
80624;BME280;70269;44.768;9.600;2023-06-14T11:44:09;97022.13;;;20.29;72.04
80624;BME280;70269;44.768;9.600;2023-06-14T11:46:35;97025.88;;;20.48;71.33
80624;BME280;70269;44.768;9.600;2023-06-14T11:49:01;97029.13;;;20.50;70.39
80624;BME280;70269;44.768;9.600;2023-06-14T11:51:35;97022.03;;;20.49;71.71
80624;BME280;70269;44.768;9.600;2023-06-14T11:54:02;97026.50;;;20.35;72.29
80624;BME280;70269;44.768;9.600;2023-06-14T11:56:28;97016.97;;;20.61;72.20
80624;BME280;70269;44.768;9.600;2023-06-14T11:58:54;97020.13;;;20.78;72.90
80624;BME280;70269;44.768;9.600;2023-06-14T12:01:23;97024.81;;;20.39;71.65
80624;BME280;70269;44.768;9.600;2023-06-14T12:03:53;97025.03;;;20.47;70.51
80624;BME280;70269;44.768;9.600;2023-06-14T12:06:29;97025.31;;;20.80;69.63
80624;BME280;70269;44.768;9.600;2023-06-14T12:08:58;97024.09;;;20.62;68.80
80624;BME280;70269;44.768;9.600;2023-06-14T12:11:31;97017.66;;;20.77;67.85
80624;BME280;70269;44.768;9.600;2023-06-14T12:13:57;97011.63;;;20.75;69.23
80624;BME280;70269;44.768;9.600;2023-06-14T12:16:30;97015.28;;;20.65;67.98
80624;BME280;70269;44.768;9.600;2023-06-14T12:18:56;97016.50;;;20.83;69.28
80624;BME280;70269;44.768;9.600;2023-06-14T12:21:26;97016.63;;;20.68;69.06
80624;BME280;70269;44.768;9.600;2023-06-14T12:23:53;97015.56;;;20.30;68.32
80624;BME280;70269;44.768;9.600;2023-06-14T12:26:19;97008.13;;;20.35;67.75
80624;BME280;70269;44.768;9.600;2023-06-14T12:28:46;97015.56;;;20.30;68.20
80624;BME280;70269;44.768;9.600;2023-06-14T12:31:14;97017.69;;;20.43;68.03
80624;BME280;70269;44.768;9.600;2023-06-14T12:33:40;97013.56;;;20.40;69.49
80624;BME280;70269;44.768;9.600;2023-06-14T12:36:07;97010.06;;;20.35;67.12
80624;BME280;70269;44.768;9.600;2023-06-14T12:38:33;97014.56;;;20.15;69.65
80624;BME280;70269;44.768;9.600;2023-06-14T12:41:00;97007.16;;;20.16;70.02
80624;BME280;70269;44.768;9.600;2023-06-14T12:43:26;97015.84;;;20.28;68.85
80624;BME280;70269;44.768;9.600;2023-06-14T12:45:51;97007.31;;;20.30;68.86
80624;BME280;70269;44.768;9.600;2023-06-14T12:48:17;97002.66;;;20.30;66.47
80624;BME280;70269;44.768;9.600;2023-06-14T12:50:42;97003.81;;;20.24;67.29
80624;BME280;70269;44.768;9.600;2023-06-14T12:53:08;96994.22;;;20.55;66.74
80624;BME280;70269;44.768;9.600;2023-06-14T12:55:33;97006.66;;;20.48;68.02
80624;BME280;70269;44.768;9.600;2023-06-14T12:57:59;96999.88;;;20.69;65.79
80624;BME280;70269;44.768;9.600;2023-06-14T13:00:25;97004.34;;;20.89;64.77
80624;BME280;70269;44.768;9.600;2023-06-14T13:02:58;96998.31;;;20.87;65.37
80624;BME280;70269;44.768;9.600;2023-06-14T13:05:24;97003.19;;;20.95;67.74
80624;BME280;70269;44.768;9.600;2023-06-14T13:07:50;97002.75;;;21.12;65.40
80624;BME280;70269;44.768;9.600;2023-06-14T13:10:16;96999.81;;;21.03;65.59
80624;BME280;70269;44.768;9.600;2023-06-14T13:12:42;96988.72;;;21.13;64.80
80624;BME280;70269;44.768;9.600;2023-06-14T13:15:08;97002.69;;;21.22;66.65
80624;BME280;70269;44.768;9.600;2023-06-14T13:17:35;96988.75;;;21.37;65.95
80624;BME280;70269;44.768;9.600;2023-06-14T13:20:07;96996.06;;;21.23;64.00
80624;BME280;70269;44.768;9.600;2023-06-14T13:22:36;96991.16;;;21.20;63.25